DW3039 Karjalohja FI current weather conditions

sailwx.info

Wind from 203 at 0 knots gusting 4

Air temperature 5.0° C
Dewpoint 3.8° C

Last reported at 2014-Oct-30 16:43 UTC.
Time now 2014-Oct-30 17:33 UTC

Location: N 60°16' E 023°41'.
View on Google Maps.

See reports from other nearby stations

  
Tides and Currents Weather Stations Pressure Air Temp Water Temp Dewpoint Dewpoint Depression Visibility Wind Speed Wind Dir Waves Ship Positions
date/time (UTC)wind fromknots sea level pressurealtimeterstation pressurevisibilityair tempwater tempwave heightnotes
2014-Oct-30 16:43 203 0 gusting 4 5.0
2014-Oct-30 16:33 236 0 gusting 3 5.0
2014-Oct-30 16:23 241 5.0
2014-Oct-30 16:13 241 5.0
2014-Oct-30 16:03 241 5.0
2014-Oct-30 15:53 195 0 gusting 3 5.6
2014-Oct-30 15:43 169 5.6
2014-Oct-30 15:33 160 5.6
2014-Oct-30 15:23 160 5.6
2014-Oct-30 15:13 198 1 gusting 4 5.6
2014-Oct-30 15:03 196 2 gusting 5 6.1
2014-Oct-30 14:53 193 1 gusting 6 6.1
2014-Oct-30 14:43 207 2 gusting 5 6.1
2014-Oct-30 14:33 210 2 gusting 6 6.7
2014-Oct-30 14:23 222 2 gusting 5 6.7
2014-Oct-30 14:13 227 2 gusting 5 6.7
2014-Oct-30 14:03 221 2 gusting 6 6.7
2014-Oct-30 13:53 201 6.7
2014-Oct-30 13:43 258 0 gusting 5 7.2
2014-Oct-30 13:33 223 2 gusting 6 7.2
2014-Oct-30 13:23 227 1 gusting 6 7.2
2014-Oct-30 13:13 216 2 gusting 6 7.2
2014-Oct-30 13:03 227 0 gusting 6 7.2
2014-Oct-30 12:53 225 2 gusting 7 7.2
2014-Oct-30 12:43 219 2 gusting 6 6.7
2014-Oct-30 12:33 218 2 gusting 7 6.7
2014-Oct-30 12:23 222 3 gusting 6 6.7
2014-Oct-30 12:13 239 6.7
2014-Oct-30 12:03 183 0 gusting 6 6.7
2014-Oct-30 11:53 212 4 gusting 8 6.7
2014-Oct-30 11:43 243 2 gusting 6 6.7
2014-Oct-30 11:33 215 4 gusting 6 6.1
2014-Oct-30 11:23 236 0 gusting 4 6.1
2014-Oct-30 11:13 238 2 gusting 5 6.1
2014-Oct-30 11:03 223 2 gusting 6 6.1
2014-Oct-30 10:53 252 0 gusting 7 6.1
2014-Oct-30 10:42 226 2 gusting 8 6.1
2014-Oct-30 10:32 254 0 gusting 5 6.1
2014-Oct-30 10:22 245 4 gusting 6 6.1
2014-Oct-30 10:12 318 0 gusting 3 5.6
2014-Oct-30 10:02 260 3 gusting 6 5.6
2014-Oct-30 09:52 241 0 gusting 7 5.6
2014-Oct-30 09:42 218 5 gusting 7 5.6
2014-Oct-30 09:32 241 0 gusting 6 5.6
2014-Oct-30 09:22 258 3 gusting 6 5.6
2014-Oct-30 09:12 258 0 gusting 5 5.6
2014-Oct-30 09:02 255 1 gusting 5 5.0
2014-Oct-30 08:52 259 2 gusting 7 5.0
2014-Oct-30 08:42 227 1 gusting 6 5.0
2014-Oct-30 08:32 258 1 gusting 6 5.0
2014-Oct-30 08:22 265 4.4
2014-Oct-30 08:12 230 1 gusting 4 3.9
2014-Oct-30 08:02 228 3.3
2014-Oct-30 07:52 228 3.3
2014-Oct-30 07:42 228 2.8
2014-Oct-30 07:32 228 2.8
2014-Oct-30 07:22 228 2.2
2014-Oct-30 07:12 228 2.2
2014-Oct-30 07:02 228 2.2
2014-Oct-30 06:52 228 2.2
2014-Oct-30 06:42 228 2.2
2014-Oct-30 06:32 228 1.7
2014-Oct-30 06:22 228 2.2
2014-Oct-30 06:12 228 2.2
2014-Oct-30 06:02 228 2.2
2014-Oct-30 05:52 228 2.2
2014-Oct-30 05:42 228 2.2
2014-Oct-30 05:32 228 2.2
2014-Oct-30 05:22 228 2.2
2014-Oct-30 05:12 228 2.2
2014-Oct-30 05:02 228 2.2
2014-Oct-30 04:52 228 2.2
2014-Oct-30 04:42 228 2.2
2014-Oct-30 04:32 228 2.2
2014-Oct-30 04:22 228 2.8
2014-Oct-30 04:12 228 2.8
2014-Oct-30 04:02 228 2.8
2014-Oct-30 03:52 228 2.8
2014-Oct-30 03:42 228 2.8
2014-Oct-30 03:32 228 2.8
2014-Oct-30 03:22 228 3.3
2014-Oct-30 03:12 228 3.3
2014-Oct-30 03:02 228 3.3
2014-Oct-30 02:52 228 3.3
2014-Oct-30 02:42 228 3.9
2014-Oct-30 02:31 228 3.9
2014-Oct-30 02:21 228 3.9
2014-Oct-30 02:11 228 3.9
2014-Oct-30 02:01 228 3.9
2014-Oct-30 01:51 228 3.9
2014-Oct-30 01:41 228 4.4
2014-Oct-30 01:31 228 4.4
2014-Oct-30 01:20 228 4.4
2014-Oct-30 01:08 228 4.4
2014-Oct-30 00:58 228 4.4
2014-Oct-30 00:48 228 4.4
2014-Oct-30 00:38 228 5.0
2014-Oct-30 00:28 228 5.0
2014-Oct-30 00:18 228 5.0
2014-Oct-30 00:08 228 5.0
2014-Oct-29 23:58 228 5.0
2014-Oct-29 23:48 228 5.0
2014-Oct-29 23:38 228 5.0
2014-Oct-29 23:28 228 5.0
2014-Oct-29 23:18 228 5.6
2014-Oct-29 23:08 228 5.6
2014-Oct-29 22:58 228 5.6
2014-Oct-29 22:48 228 5.6
2014-Oct-29 22:38 228 5.6
2014-Oct-29 22:28 228 6.1
2014-Oct-29 22:18 228 6.1
2014-Oct-29 22:08 217 6.1
2014-Oct-29 21:58 242 6.1
2014-Oct-29 21:48 239 6.1
2014-Oct-29 21:38 271 6.1
2014-Oct-29 21:28 249 6.1
2014-Oct-29 21:18 256 1 gusting 5 6.1
2014-Oct-29 21:08 249 0 gusting 6 6.1
2014-Oct-29 20:58 244 1 gusting 5 6.1
2014-Oct-29 20:48 243 1 gusting 5 6.1
2014-Oct-29 20:38 276 6.1
2014-Oct-29 20:28 276 6.7
2014-Oct-29 20:18 251 6.7
2014-Oct-29 20:08 254 0 gusting 4 6.7
2014-Oct-29 19:58 217 6.7
2014-Oct-29 19:48 234 6.7
2014-Oct-29 19:38 253 0 gusting 3 6.7
2014-Oct-29 19:28 240 6.7
2014-Oct-29 19:18 248 0 gusting 4 7.2
2014-Oct-29 19:07 244 0 gusting 7 7.2
2014-Oct-29 18:57 235 1 gusting 3 7.2
2014-Oct-29 18:47 225 2 gusting 5 7.2
2014-Oct-29 18:37 242 2 gusting 5 7.2
2014-Oct-29 18:27 257 2 gusting 5 7.2
2014-Oct-29 18:17 260 1 gusting 5 7.8
2014-Oct-29 18:07 246 2 gusting 6 7.8
2014-Oct-29 17:57 251 0 gusting 7 7.8
2014-Oct-29 17:47 251 1 gusting 6 8.3
2014-Oct-29 17:37 201 8.3
2014-Oct-29 17:27 254 4 gusting 8 8.3
2014-Oct-29 17:17 242 4 gusting 8 8.3
2014-Oct-29 17:07 249 6 gusting 13 8.3
2014-Oct-29 16:57 253 4 gusting 11 8.3
2014-Oct-29 16:47 245 7 gusting 19 8.9
2014-Oct-29 16:37 246 5 gusting 14 8.9
2014-Oct-29 16:27 254 6 gusting 18 8.9
2014-Oct-29 16:17 257 6 gusting 12 9.4
2014-Oct-29 16:07 226 6 gusting 15 9.4
2014-Oct-29 15:57 231 6 gusting 11 9.4
2014-Oct-29 15:47 220 4 gusting 12 9.4
2014-Oct-29 15:37 227 6 gusting 12 9.4
2014-Oct-29 15:26 219 9 gusting 14 9.4
2014-Oct-29 15:16 225 6 gusting 17 9.4
2014-Oct-29 15:06 213 6 gusting 16 9.4
2014-Oct-29 14:56 205 8 gusting 16 9.4
2014-Oct-29 14:46 215 8 gusting 17 9.4
2014-Oct-29 14:36 215 7 gusting 20 9.4
2014-Oct-29 14:26 226 5 gusting 23 9.4
2014-Oct-29 14:16 201 6 gusting 20 9.4
2014-Oct-29 14:06 204 6 gusting 15 9.4
2014-Oct-29 13:56 213 8 gusting 17 9.4
2014-Oct-29 13:46 206 7 gusting 15 9.4
2014-Oct-29 13:36 206 6 gusting 17 9.4
2014-Oct-29 13:26 205 6 gusting 16 10.0
2014-Oct-29 13:16 215 8 gusting 14 10.0
2014-Oct-29 13:06 213 9 gusting 19 10.0
2014-Oct-29 12:56 212 8 gusting 20 10.0
2014-Oct-29 12:46 208 8 gusting 23 10.0
2014-Oct-29 12:36 194 8 gusting 24 10.0
2014-Oct-29 12:26 206 11 gusting 21 10.0
2014-Oct-29 12:16 205 12 gusting 24 10.0
2014-Oct-29 12:06 212 10 gusting 19 10.0
2014-Oct-29 11:55 184 9 gusting 23 10.0
2014-Oct-29 11:45 208 12 gusting 25 10.0
2014-Oct-29 11:35 206 10 gusting 20 10.0
2014-Oct-29 11:25 199 7 gusting 31 10.0
2014-Oct-29 11:15 197 10 gusting 27 10.0
2014-Oct-29 11:05 214 13 gusting 33 10.0
2014-Oct-29 10:55 211 8 gusting 26 10.0
2014-Oct-29 10:45 185 9 gusting 25 10.6
2014-Oct-29 10:35 200 6 gusting 23 10.6
2014-Oct-29 10:25 192 11 gusting 24 10.6
2014-Oct-29 10:15 186 8 gusting 26 10.6
2014-Oct-29 10:05 197 10 gusting 24 10.0
2014-Oct-29 09:55 189 8 gusting 17 10.0
2014-Oct-29 09:45 189 10 gusting 26 10.0
2014-Oct-29 09:35 192 13 gusting 29 10.0
2014-Oct-29 09:25 193 11 gusting 27 10.0
2014-Oct-29 09:15 196 10 gusting 23 10.0
2014-Oct-29 09:05 202 13 gusting 26 10.0
2014-Oct-29 08:55 202 8 gusting 21 10.0
2014-Oct-29 08:45 199 6 gusting 19 10.0
2014-Oct-29 08:35 192 9 gusting 22 9.4
2014-Oct-29 08:25 201 9 gusting 22 9.4
2014-Oct-29 08:15 188 6 gusting 22 9.4
2014-Oct-29 08:05 190 10 gusting 18 9.4
2014-Oct-29 07:55 192 6 gusting 19 9.4
2014-Oct-29 07:45 204 6 gusting 19 9.4
2014-Oct-29 07:34 197 9 gusting 19 8.9
2014-Oct-29 07:24 195 8 gusting 18 8.9
2014-Oct-29 07:14 184 6 gusting 18 8.9
2014-Oct-29 07:04 195 7 gusting 23 8.9
2014-Oct-29 06:54 203 10 gusting 25 8.9
2014-Oct-29 06:44 182 6 gusting 16 8.9
2014-Oct-29 06:34 201 10 gusting 26 8.9
2014-Oct-29 06:24 205 8 gusting 18 8.9
2014-Oct-29 06:14 194 6 gusting 19 8.9
2014-Oct-29 06:04 192 5 gusting 18 8.9
2014-Oct-29 05:54 187 6 gusting 19 8.9
2014-Oct-29 05:44 197 6 gusting 19 8.9
2014-Oct-29 05:34 194 7 gusting 15 8.9
2014-Oct-29 05:24 189 10 gusting 27 8.3
2014-Oct-29 05:14 188 6 gusting 15 8.3
2014-Oct-29 05:04 197 7 gusting 14 8.3
2014-Oct-29 04:54 204 6 gusting 17 8.3
2014-Oct-29 04:44 196 7 gusting 17 8.3
2014-Oct-29 04:34 196 6 gusting 19 8.3
2014-Oct-29 04:24 196 6 gusting 16 8.3
2014-Oct-29 04:14 191 5 gusting 18 8.3
2014-Oct-29 04:04 182 6 gusting 13 8.9
2014-Oct-29 03:54 209 5 gusting 13 8.9
2014-Oct-29 03:44 194 6 gusting 13 8.9
2014-Oct-29 03:34 190 4 gusting 14 8.9
2014-Oct-29 03:24 182 3 gusting 15 8.9
2014-Oct-29 03:14 196 6 gusting 14 8.9
2014-Oct-29 03:04 192 6 gusting 13 8.9
2014-Oct-29 02:54 202 6 gusting 12 8.9
2014-Oct-29 02:44 197 7 gusting 19 8.9
2014-Oct-29 02:34 186 6 gusting 10 8.9
2014-Oct-29 02:24 193 6 gusting 10 8.9
2014-Oct-29 02:14 186 1 gusting 11 8.9
2014-Oct-29 02:04 209 4 gusting 8 8.9
2014-Oct-29 01:54 198 6 gusting 11 9.4
2014-Oct-29 01:44 193 4 gusting 10 9.4
2014-Oct-29 01:34 185 4 gusting 14 9.4
2014-Oct-29 01:24 183 5 gusting 12 9.4
2014-Oct-29 01:14 200 5 gusting 16 9.4
2014-Oct-29 01:04 187 6 gusting 13 9.4
2014-Oct-29 00:53 190 4 gusting 10 9.4
2014-Oct-29 00:43 189 6 gusting 17 9.4
2014-Oct-29 00:33 198 3 gusting 13 9.4
2014-Oct-29 00:23 194 6 gusting 15 9.4
2014-Oct-29 00:13 199 7 gusting 12 10.0
2014-Oct-29 00:03 204 4 gusting 15 10.0
2014-Oct-28 23:53 204 6 gusting 16 10.0
2014-Oct-28 23:43 190 6 gusting 17 10.0
2014-Oct-28 23:33 209 6 gusting 16 10.0
2014-Oct-28 23:23 187 6 gusting 15 10.0
2014-Oct-28 23:13 208 7 gusting 14 10.0
2014-Oct-28 23:03 205 7 gusting 14 10.0
2014-Oct-28 22:53 204 7 gusting 24 10.0
2014-Oct-28 22:43 199 6 gusting 18 10.0
2014-Oct-28 22:33 201 9 gusting 15 10.0
2014-Oct-28 22:23 199 5 gusting 13 10.0
2014-Oct-28 22:13 203 6 gusting 13 10.0
2014-Oct-28 22:03 203 7 gusting 15 10.0
2014-Oct-28 21:53 195 6 gusting 13 10.0
2014-Oct-28 21:43 207 7 gusting 15 10.0
2014-Oct-28 21:33 185 6 gusting 14 10.0
2014-Oct-28 21:23 202 6 gusting 17 10.0
2014-Oct-28 21:13 206 6 gusting 15 10.0
2014-Oct-28 21:03 199 6 gusting 15 10.6
2014-Oct-28 20:53 203 7 gusting 14 10.6
2014-Oct-28 20:43 200 6 gusting 16 10.6
2014-Oct-28 20:33 203 5 gusting 16 10.6
2014-Oct-28 20:23 209 7 gusting 15 10.6
2014-Oct-28 20:13 201 8 gusting 13 10.6
2014-Oct-28 20:03 197 8 gusting 18 10.6
2014-Oct-28 19:53 213 5 gusting 17 10.6
2014-Oct-28 19:43 195 7 gusting 18 10.6
2014-Oct-28 19:33 205 6 gusting 17 10.6
2014-Oct-28 19:23 208 7 gusting 15 10.6
2014-Oct-28 19:13 202 7 gusting 18 10.6
2014-Oct-28 19:03 196 6 gusting 16 10.6
2014-Oct-28 18:53 196 7 gusting 17 11.1
2014-Oct-28 18:43 202 5 gusting 16 11.1
2014-Oct-28 18:33 194 8 gusting 19 11.1
2014-Oct-28 18:23 197 6 gusting 20 11.1
2014-Oct-28 18:13 202 7 gusting 13 11.1
2014-Oct-28 18:03 196 7 gusting 21 11.1
2014-Oct-28 17:53 207 6 gusting 19 11.1
2014-Oct-28 17:43 207 10 gusting 16 11.1
2014-Oct-28 17:33 193 9 gusting 19 11.1
2014-Oct-28 17:23 192 6 gusting 23 11.1
2014-Oct-28 17:13 206 7 gusting 17 11.1
2014-Oct-28 17:03 206 7 gusting 14 11.1